createdAt,value
2018-05-27T00:00:08.969Z,1001.89
2018-05-27T00:01:15.338Z,1001.86
2018-05-27T00:02:21.707Z,1001.84
2018-05-27T00:03:28.586Z,1001.82
2018-05-27T00:04:34.928Z,1001.80
2018-05-27T00:05:41.303Z,1001.83
2018-05-27T00:06:47.667Z,1001.80
2018-05-27T00:07:54.046Z,1001.80
2018-05-27T00:09:00.452Z,1001.76
2018-05-27T00:10:06.279Z,1001.73
2018-05-27T00:11:12.653Z,1001.75
2018-05-27T00:12:19.039Z,1001.75
2018-05-27T00:13:25.399Z,1001.70
2018-05-27T00:14:31.756Z,1001.65
2018-05-27T00:15:38.110Z,1001.66
2018-05-27T00:16:44.975Z,1001.67
2018-05-27T00:17:50.844Z,1001.64
2018-05-27T00:18:57.231Z,1001.60
2018-05-27T00:20:03.568Z,1001.63
2018-05-27T00:21:10.420Z,1001.63
2018-05-27T00:22:16.274Z,1001.63
2018-05-27T00:23:23.185Z,1001.63
2018-05-27T00:24:28.994Z,1001.61
2018-05-27T00:25:35.360Z,1001.64
2018-05-27T00:26:41.722Z,1001.65
2018-05-27T00:27:48.094Z,1001.61
2018-05-27T00:28:55.474Z,1001.63
2018-05-27T00:30:01.301Z,1001.60
2018-05-27T00:31:07.164Z,1001.63
2018-05-27T00:32:13.521Z,1001.58
2018-05-27T00:33:20.399Z,1001.58
2018-05-27T00:34:26.265Z,1001.55
2018-05-27T00:35:32.590Z,1001.52
2018-05-27T00:36:38.956Z,1001.53
2018-05-27T00:37:45.314Z,1001.55
2018-05-27T00:38:51.699Z,1001.57
2018-05-27T00:39:58.027Z,1001.55
2018-05-27T00:41:04.373Z,1001.55
2018-05-27T00:42:10.732Z,1001.56
2018-05-27T00:43:17.105Z,1001.53
2018-05-27T00:44:23.458Z,1001.57
2018-05-27T00:45:29.799Z,1001.57
2018-05-27T00:46:36.156Z,1001.53
2018-05-27T00:47:42.503Z,1001.54
2018-05-27T00:48:48.884Z,1001.53
2018-05-27T00:49:55.274Z,1001.51
2018-05-27T00:51:01.601Z,1001.49
2018-05-27T00:52:07.925Z,1001.49
2018-05-27T00:53:15.277Z,1001.46
2018-05-27T00:54:20.651Z,1001.42
2018-05-27T00:55:26.979Z,1001.41
2018-05-27T00:56:33.328Z,1001.37
2018-05-27T00:57:39.678Z,1001.37
2018-05-27T00:58:46.045Z,1001.33
2018-05-27T00:59:52.380Z,1001.29
2018-05-27T01:00:58.730Z,1001.23
2018-05-27T01:02:05.566Z,1001.24
2018-05-27T01:03:11.456Z,1001.28
2018-05-27T01:04:18.300Z,1001.33
2018-05-27T01:05:24.140Z,1001.30
2018-05-27T01:06:30.473Z,1001.31
2018-05-27T01:07:36.819Z,1001.30
2018-05-27T01:08:43.199Z,1001.32
2018-05-27T01:09:50.026Z,1001.34
2018-05-27T01:10:55.884Z,1001.27
2018-05-27T01:12:02.238Z,1001.35
2018-05-27T01:13:08.596Z,1001.32
2018-05-27T01:14:14.948Z,1001.32
2018-05-27T01:15:21.283Z,1001.30
2018-05-27T01:16:27.624Z,1001.29
2018-05-27T01:17:33.973Z,1001.34
2018-05-27T01:18:40.342Z,1001.32
2018-05-27T01:19:46.674Z,1001.29
2018-05-27T01:20:53.009Z,1001.37
2018-05-27T01:21:59.354Z,1001.35
2018-05-27T01:23:05.696Z,1001.37
2018-05-27T01:24:12.087Z,1001.32
2018-05-27T01:25:19.393Z,1001.32
2018-05-27T01:26:24.725Z,1001.32
2018-05-27T01:27:31.089Z,1001.32
2018-05-27T01:28:37.425Z,1001.30
2018-05-27T01:29:43.781Z,1001.26
2018-05-27T01:30:50.597Z,1001.26
2018-05-27T01:31:56.572Z,1001.24
2018-05-27T01:33:02.795Z,1001.24
2018-05-27T01:34:09.158Z,1001.20
2018-05-27T01:35:15.474Z,1001.26
2018-05-27T01:36:21.819Z,1001.21
2018-05-27T01:37:28.153Z,1001.24
2018-05-27T01:38:35.004Z,1001.22
2018-05-27T01:39:40.859Z,1001.24
2018-05-27T01:40:47.179Z,1001.25
2018-05-27T01:41:53.544Z,1001.20
2018-05-27T01:42:59.856Z,1001.18
2018-05-27T01:44:06.216Z,1001.15
2018-05-27T01:45:12.530Z,1001.14
2018-05-27T01:46:18.877Z,1001.11
2018-05-27T01:47:25.215Z,1001.10
2018-05-27T01:48:31.550Z,1001.09
2018-05-27T01:49:37.915Z,1001.09
2018-05-27T01:50:44.214Z,1001.08
2018-05-27T01:51:51.060Z,1001.04
2018-05-27T01:52:56.915Z,1001.00
2018-05-27T01:54:04.269Z,1000.96
2018-05-27T01:55:09.572Z,1000.98
2018-05-27T01:56:16.394Z,1000.98
2018-05-27T01:57:22.243Z,1000.96
2018-05-27T01:58:28.591Z,1000.99
2018-05-27T01:59:35.921Z,1000.98
2018-05-27T02:00:41.244Z,1001.01
2018-05-27T02:01:47.575Z,1001.02
2018-05-27T02:02:53.920Z,1001.01
2018-05-27T02:04:00.272Z,1000.96
2018-05-27T02:05:08.075Z,1000.94
2018-05-27T02:06:12.926Z,1000.92
2018-05-27T02:07:19.253Z,1000.95
2018-05-27T02:08:25.595Z,1000.92
2018-05-27T02:09:31.957Z,1000.93
2018-05-27T02:10:38.261Z,1000.95
2018-05-27T02:11:44.606Z,1000.94
2018-05-27T02:12:50.930Z,1000.89
2018-05-27T02:13:57.295Z,1000.88
2018-05-27T02:15:03.605Z,1000.83
2018-05-27T02:16:10.939Z,1000.84
2018-05-27T02:17:16.283Z,1000.83
2018-05-27T02:18:22.607Z,1000.84
2018-05-27T02:19:29.461Z,1000.84
2018-05-27T02:20:35.305Z,1000.81
2018-05-27T02:21:41.634Z,1000.81
2018-05-27T02:22:47.947Z,1000.79
2018-05-27T02:23:54.299Z,1000.85
2018-05-27T02:25:01.111Z,1000.83
2018-05-27T02:26:06.948Z,1000.82
2018-05-27T02:27:13.277Z,1000.82
2018-05-27T02:28:19.601Z,1000.76
2018-05-27T02:29:25.966Z,1000.80
2018-05-27T02:30:32.281Z,1000.80
2018-05-27T02:31:38.606Z,1000.85
2018-05-27T02:32:44.944Z,1000.82
2018-05-27T02:33:51.272Z,1000.84
2018-05-27T02:34:57.625Z,1000.78
2018-05-27T02:36:03.936Z,1000.79
2018-05-27T02:37:10.266Z,1000.80
2018-05-27T02:38:16.591Z,1000.79
2018-05-27T02:39:22.943Z,1000.83
2018-05-27T02:40:29.242Z,1000.77
2018-05-27T02:41:36.076Z,1000.77
2018-05-27T02:42:41.911Z,1000.77
2018-05-27T02:43:48.721Z,1000.78
2018-05-27T02:44:54.587Z,1000.78
2018-05-27T02:46:00.882Z,1000.78
2018-05-27T02:47:07.208Z,1000.77
2018-05-27T02:48:13.543Z,1000.74
2018-05-27T02:49:19.899Z,1000.78
2018-05-27T02:50:26.204Z,1000.76
2018-05-27T02:51:32.530Z,1000.79
2018-05-27T02:52:38.852Z,1000.77
2018-05-27T02:53:45.676Z,1000.77
2018-05-27T02:54:52.029Z,1000.76
2018-05-27T02:55:57.832Z,1000.80
2018-05-27T02:57:04.164Z,1000.76
2018-05-27T02:58:10.490Z,1000.78
2018-05-27T02:59:16.851Z,1000.74
2018-05-27T03:00:23.155Z,1000.75
2018-05-27T03:01:29.460Z,1000.75
2018-05-27T03:02:35.786Z,1000.75
2018-05-27T03:03:42.119Z,1000.73
2018-05-27T03:04:48.544Z,1000.73
2018-05-27T03:05:54.773Z,1000.76
2018-05-27T03:07:01.105Z,1000.75
2018-05-27T03:08:07.928Z,1000.75
2018-05-27T03:09:13.764Z,1000.75
2018-05-27T03:10:20.073Z,1000.76
2018-05-27T03:11:26.901Z,1000.77
2018-05-27T03:12:32.729Z,1000.75
2018-05-27T03:13:39.541Z,1000.81
2018-05-27T03:14:45.890Z,1000.80
2018-05-27T03:15:51.717Z,1000.78
2018-05-27T03:16:58.029Z,1000.80
2018-05-27T03:18:04.362Z,1000.76
2018-05-27T03:19:10.702Z,1000.80
2018-05-27T03:20:16.996Z,1000.82
2018-05-27T03:21:23.343Z,1000.85
2018-05-27T03:22:29.675Z,1000.85
2018-05-27T03:23:35.972Z,1000.83
2018-05-27T03:24:42.322Z,1000.82
2018-05-27T03:25:49.809Z,1000.74
2018-05-27T03:26:54.958Z,1000.83
2018-05-27T03:28:01.280Z,1000.83
2018-05-27T03:29:07.628Z,1000.85
2018-05-27T03:30:13.961Z,1000.79
2018-05-27T03:31:20.250Z,1000.83
2018-05-27T03:32:26.582Z,1000.82
2018-05-27T03:33:32.911Z,1000.84
2018-05-27T03:34:39.251Z,1000.83
2018-05-27T03:35:45.563Z,1000.87
2018-05-27T03:36:52.386Z,1000.83
2018-05-27T03:37:58.221Z,1000.85
2018-05-27T03:39:04.539Z,1000.89
2018-05-27T03:40:10.893Z,1000.84
2018-05-27T03:41:17.212Z,1000.87
2018-05-27T03:42:23.535Z,1000.89
2018-05-27T03:43:30.381Z,1000.86
2018-05-27T03:44:36.224Z,1000.89
2018-05-27T03:45:42.563Z,1000.86
2018-05-27T03:46:48.883Z,1000.89
2018-05-27T03:47:55.222Z,1000.94
2018-05-27T03:49:01.568Z,1000.94
2018-05-27T03:50:07.917Z,1000.93
2018-05-27T03:51:14.237Z,1000.93
2018-05-27T03:52:20.577Z,1000.92
2018-05-27T03:53:27.520Z,1000.90
2018-05-27T03:54:33.287Z,1000.90
2018-05-27T03:55:39.605Z,1000.85
2018-05-27T03:56:45.961Z,1000.86
2018-05-27T03:57:52.317Z,1000.83
2018-05-27T03:58:58.649Z,1000.77
2018-05-27T04:00:05.020Z,1000.81
2018-05-27T04:01:11.351Z,1000.78
2018-05-27T04:02:17.737Z,1000.79
2018-05-27T04:03:24.055Z,1000.79
2018-05-27T04:04:30.431Z,1000.78
2018-05-27T04:05:36.769Z,1000.76
2018-05-27T04:06:43.127Z,1000.71
2018-05-27T04:07:49.490Z,1000.73
2018-05-27T04:08:55.869Z,1000.72
2018-05-27T04:10:02.248Z,1000.73
2018-05-27T04:11:08.649Z,1000.70
2018-05-27T04:12:14.973Z,1000.72
2018-05-27T04:13:21.335Z,1000.72
2018-05-27T04:14:27.718Z,1000.74
2018-05-27T04:15:34.073Z,1000.72
2018-05-27T04:16:40.445Z,1000.72
2018-05-27T04:17:46.825Z,1000.74
2018-05-27T04:18:53.198Z,1000.77
2018-05-27T04:19:59.602Z,1000.73
2018-05-27T04:21:05.937Z,1000.73
2018-05-27T04:22:12.314Z,1000.75
2018-05-27T04:23:18.707Z,1000.74
2018-05-27T04:24:25.070Z,1000.76
2018-05-27T04:25:31.469Z,1000.78
2018-05-27T04:26:37.815Z,1000.75
2018-05-27T04:27:44.195Z,1000.78
2018-05-27T04:28:51.077Z,1000.78
2018-05-27T04:29:57.542Z,1000.79
2018-05-27T04:31:03.341Z,1000.78
2018-05-27T04:32:09.725Z,1000.80
2018-05-27T04:33:16.110Z,1000.76
2018-05-27T04:34:23.555Z,1000.76
2018-05-27T04:35:28.900Z,1000.76
2018-05-27T04:36:35.276Z,1000.76
2018-05-27T04:37:41.666Z,1000.75
2018-05-27T04:38:48.041Z,1000.74
2018-05-27T04:39:54.466Z,1000.72
2018-05-27T04:41:00.844Z,1000.68
2018-05-27T04:42:07.234Z,1000.66
2018-05-27T04:43:14.647Z,1000.69
2018-05-27T04:44:20.044Z,1000.70
2018-05-27T04:45:26.476Z,1000.70
2018-05-27T04:46:32.873Z,1000.71
2018-05-27T04:47:39.292Z,1000.75
2018-05-27T04:48:45.711Z,1000.74
2018-05-27T04:49:52.170Z,1000.79
2018-05-27T04:50:58.568Z,1000.81
2018-05-27T04:52:05.023Z,1000.79
2018-05-27T04:53:11.954Z,1000.81
2018-05-27T04:54:18.407Z,1000.78
2018-05-27T04:55:24.389Z,1000.73
2018-05-27T04:56:30.813Z,1000.73
2018-05-27T04:57:37.281Z,1000.71
2018-05-27T04:58:43.738Z,1000.73
2018-05-27T04:59:50.233Z,1000.73
2018-05-27T05:00:56.692Z,1000.74
2018-05-27T05:02:03.170Z,1000.77
2018-05-27T05:03:09.654Z,1000.75
2018-05-27T05:04:16.148Z,1000.76
2018-05-27T05:05:22.656Z,1000.81
2018-05-27T05:06:29.140Z,1000.83
2018-05-27T05:07:35.648Z,1000.84
2018-05-27T05:08:42.140Z,1000.89
2018-05-27T05:09:48.682Z,1000.87
2018-05-27T05:10:55.164Z,1000.89
2018-05-27T05:12:01.677Z,1000.91
2018-05-27T05:13:08.201Z,1000.93
2018-05-27T05:14:14.709Z,1000.97
2018-05-27T05:15:21.263Z,1000.90
2018-05-27T05:16:27.759Z,1000.90
2018-05-27T05:17:34.799Z,1000.90
2018-05-27T05:18:40.822Z,1000.89
2018-05-27T05:19:47.391Z,1000.90
2018-05-27T05:20:53.901Z,1000.88
2018-05-27T05:22:00.973Z,1000.90
2018-05-27T05:23:06.984Z,1000.89
2018-05-27T05:24:13.520Z,1000.89
2018-05-27T05:25:20.086Z,1000.91
2018-05-27T05:26:26.598Z,1000.90
2018-05-27T05:27:33.638Z,1000.93
2018-05-27T05:28:40.194Z,1000.90
2018-05-27T05:29:46.245Z,1000.92
2018-05-27T05:30:52.806Z,1000.89
2018-05-27T05:31:59.815Z,1000.89
2018-05-27T05:33:05.865Z,1000.92
2018-05-27T05:34:12.420Z,1000.90
2018-05-27T05:35:19.485Z,1000.93
2018-05-27T05:36:25.546Z,1000.91
2018-05-27T05:37:32.033Z,1000.93
2018-05-27T05:38:38.568Z,1000.96
2018-05-27T05:39:45.112Z,1000.93
2018-05-27T05:40:51.667Z,1000.94
2018-05-27T05:41:58.189Z,1000.91
2018-05-27T05:43:04.708Z,1000.92
2018-05-27T05:44:11.245Z,1000.89
2018-05-27T05:45:17.822Z,1000.87
2018-05-27T05:46:24.822Z,1000.87
2018-05-27T05:47:30.867Z,1000.88
2018-05-27T05:48:37.396Z,1000.91
2018-05-27T05:49:43.931Z,1000.92
2018-05-27T05:50:50.499Z,1000.92
2018-05-27T05:51:57.012Z,1000.91
2018-05-27T05:53:03.551Z,1000.95
2018-05-27T05:54:10.084Z,1000.94
2018-05-27T05:55:17.133Z,1000.92
2018-05-27T05:56:23.183Z,1000.93
2018-05-27T05:57:29.710Z,1000.92
2018-05-27T05:58:36.241Z,1000.94
2018-05-27T05:59:42.793Z,1000.92
2018-05-27T06:00:49.335Z,1000.91
2018-05-27T06:01:56.355Z,1000.91
2018-05-27T06:03:02.890Z,1000.89
2018-05-27T06:04:09.521Z,1000.90
2018-05-27T06:05:15.501Z,1000.89
2018-05-27T06:06:22.077Z,1000.93
2018-05-27T06:07:28.597Z,1000.90
2018-05-27T06:08:36.134Z,1000.90
2018-05-27T06:09:41.689Z,1000.95
2018-05-27T06:10:48.767Z,1000.88
2018-05-27T06:11:54.805Z,1000.90
2018-05-27T06:13:01.372Z,1000.90
2018-05-27T06:14:07.927Z,1000.90
2018-05-27T06:15:14.503Z,1000.91
2018-05-27T06:16:21.082Z,1000.93
2018-05-27T06:17:28.114Z,1000.87
2018-05-27T06:18:34.191Z,1000.90
2018-05-27T06:19:40.799Z,1000.86
2018-05-27T06:20:47.312Z,1000.87
2018-05-27T06:21:53.904Z,1000.88
2018-05-27T06:23:00.450Z,1000.81
2018-05-27T06:24:07.014Z,1000.77
2018-05-27T06:25:13.600Z,1000.80
2018-05-27T06:26:20.175Z,1000.78
2018-05-27T06:27:26.714Z,1000.84
2018-05-27T06:28:33.276Z,1000.80
2018-05-27T06:29:39.856Z,1000.82
2018-05-27T06:30:46.418Z,1000.84
2018-05-27T06:31:53.015Z,1000.83
2018-05-27T06:32:59.560Z,1000.87
2018-05-27T06:34:07.320Z,1000.91
2018-05-27T06:35:12.716Z,1000.86
2018-05-27T06:36:19.293Z,1000.87
2018-05-27T06:37:25.896Z,1000.84
2018-05-27T06:38:32.458Z,1000.85
2018-05-27T06:39:40.040Z,1000.87
2018-05-27T06:40:45.627Z,1000.82
2018-05-27T06:41:52.245Z,1000.83
2018-05-27T06:42:58.813Z,1000.87
2018-05-27T06:44:05.411Z,1000.80
2018-05-27T06:45:12.001Z,1000.84
2018-05-27T06:46:18.598Z,1000.82
2018-05-27T06:47:25.218Z,1000.84
2018-05-27T06:48:31.793Z,1000.81
2018-05-27T06:49:39.397Z,1000.86
2018-05-27T06:50:44.999Z,1000.86
2018-05-27T06:51:52.132Z,1000.87
2018-05-27T06:52:58.225Z,1000.90
2018-05-27T06:54:04.826Z,1000.88
2018-05-27T06:55:11.522Z,1000.93
2018-05-27T06:56:18.037Z,1000.95
2018-05-27T06:57:24.668Z,1000.97
2018-05-27T06:58:31.265Z,1001.02
2018-05-27T06:59:37.851Z,1000.99
2018-05-27T07:00:44.459Z,1001.01
2018-05-27T07:01:52.082Z,1001.03
2018-05-27T07:02:57.725Z,1001.00
2018-05-27T07:04:04.305Z,1000.96
2018-05-27T07:05:10.916Z,1000.94
2018-05-27T07:06:17.537Z,1000.96
2018-05-27T07:07:24.164Z,1000.97
2018-05-27T07:08:30.767Z,1001.00
2018-05-27T07:09:37.395Z,1000.97
2018-05-27T07:10:44.001Z,1000.98
2018-05-27T07:11:50.629Z,1000.98
2018-05-27T07:12:57.274Z,1001.02
2018-05-27T07:14:04.174Z,1000.99
2018-05-27T07:15:10.985Z,1000.95
2018-05-27T07:16:17.121Z,1000.91
2018-05-27T07:17:24.784Z,1000.96
2018-05-27T07:18:30.391Z,1000.90
2018-05-27T07:19:37.009Z,1000.91
2018-05-27T07:20:43.641Z,1000.79
2018-05-27T07:21:50.275Z,1000.82
2018-05-27T07:22:56.916Z,1000.78
2018-05-27T07:24:04.032Z,1000.80
2018-05-27T07:25:10.178Z,1000.81
2018-05-27T07:26:16.795Z,1000.76
2018-05-27T07:27:23.946Z,1000.85
2018-05-27T07:28:30.089Z,1000.72
2018-05-27T07:29:36.710Z,1000.70
2018-05-27T07:31:50.013Z,1000.68
2018-05-27T07:32:56.640Z,1000.64
2018-05-27T07:34:03.260Z,1000.65
2018-05-27T07:35:09.907Z,1000.66
2018-05-27T07:36:16.543Z,1000.63
2018-05-27T07:37:23.684Z,1000.66
2018-05-27T07:38:29.870Z,1000.66
2018-05-27T07:39:36.491Z,1000.66
2018-05-27T07:40:43.167Z,1000.65
2018-05-27T07:41:49.802Z,1000.67
2018-05-27T07:42:56.474Z,1000.66
2018-05-27T07:44:03.648Z,1000.65
2018-05-27T07:45:10.268Z,1000.66
2018-05-27T07:46:16.425Z,1000.62
2018-05-27T07:47:23.094Z,1000.68
2018-05-27T07:48:29.771Z,1000.61
2018-05-27T07:49:36.410Z,1000.65
2018-05-27T07:50:43.085Z,1000.64
2018-05-27T07:51:49.759Z,1000.68
2018-05-27T07:52:56.913Z,1000.64
2018-05-27T07:54:03.119Z,1000.61
2018-05-27T07:55:09.778Z,1000.66
2018-05-27T07:56:16.952Z,1000.66
2018-05-27T07:57:23.147Z,1000.63
2018-05-27T07:58:29.860Z,1000.65
2018-05-27T07:59:36.478Z,1000.66
2018-05-27T08:00:43.165Z,1000.68
2018-05-27T08:01:49.850Z,1000.69
2018-05-27T08:02:56.543Z,1000.69
2018-05-27T08:04:03.236Z,1000.69
2018-05-27T08:05:10.411Z,1000.70
2018-05-27T08:06:16.608Z,1000.74
2018-05-27T08:07:23.293Z,1000.67
2018-05-27T08:08:29.973Z,1000.68
2018-05-27T08:09:36.695Z,1000.66
2018-05-27T08:10:43.390Z,1000.67
2018-05-27T08:11:50.087Z,1000.68
2018-05-27T08:12:56.791Z,1000.69
2018-05-27T08:14:03.528Z,1000.64
2018-05-27T08:15:10.218Z,1000.65
2018-05-27T08:16:16.940Z,1000.64
2018-05-27T08:17:23.683Z,1000.66
2018-05-27T08:18:30.416Z,1000.61
2018-05-27T08:19:37.192Z,1000.62
2018-05-27T08:20:43.913Z,1000.65
2018-05-27T08:21:50.677Z,1000.67
2018-05-27T08:22:57.529Z,1000.67
2018-05-27T08:24:04.733Z,1000.67
2018-05-27T08:25:10.996Z,1000.64
2018-05-27T08:26:17.764Z,1000.64
2018-05-27T08:27:24.529Z,1000.61
2018-05-27T08:28:31.294Z,1000.63
2018-05-27T08:29:38.089Z,1000.60
2018-05-27T08:30:44.827Z,1000.65
2018-05-27T08:31:51.589Z,1000.60
2018-05-27T08:32:58.356Z,1000.59
2018-05-27T08:34:05.102Z,1000.58
2018-05-27T08:35:11.888Z,1000.58
2018-05-27T08:36:18.628Z,1000.59
2018-05-27T08:37:25.398Z,1000.62
2018-05-27T08:38:32.155Z,1000.61
2018-05-27T08:39:38.935Z,1000.62
2018-05-27T08:40:45.662Z,1000.56
2018-05-27T08:41:52.426Z,1000.59
2018-05-27T08:42:59.180Z,1000.63
2018-05-27T08:44:05.940Z,1000.64
2018-05-27T08:45:12.713Z,1000.64
2018-05-27T08:46:19.533Z,1000.61
2018-05-27T08:47:26.211Z,1000.64
2018-05-27T08:48:32.967Z,1000.66
2018-05-27T08:49:39.738Z,1000.65
2018-05-27T08:50:46.485Z,1000.68
2018-05-27T08:51:53.266Z,1000.71
2018-05-27T08:53:00.067Z,1000.67
2018-05-27T08:54:06.868Z,1000.68
2018-05-27T08:55:13.672Z,1000.63
2018-05-27T08:56:20.480Z,1000.67
2018-05-27T08:57:27.793Z,1000.72
2018-05-27T08:58:34.661Z,1000.62
2018-05-27T08:59:41.021Z,1000.61
2018-05-27T09:00:47.864Z,1000.61
2018-05-27T09:01:54.730Z,1000.59
2018-05-27T09:03:01.608Z,1000.59
2018-05-27T09:04:08.471Z,1000.55
2018-05-27T09:05:15.372Z,1000.62
2018-05-27T09:06:22.714Z,1000.65
2018-05-27T09:07:29.097Z,1000.57
2018-05-27T09:08:35.947Z,1000.64
2018-05-27T09:09:43.339Z,1000.57
2018-05-27T09:10:49.668Z,1000.65
2018-05-27T09:11:56.490Z,1000.65
2018-05-27T09:13:03.312Z,1000.61
2018-05-27T09:14:10.151Z,1000.63
2018-05-27T09:15:17.029Z,1000.59
2018-05-27T09:16:23.787Z,1000.62
2018-05-27T09:17:30.583Z,1000.59
2018-05-27T09:18:37.397Z,1000.61
2018-05-27T09:19:44.201Z,1000.62
2018-05-27T09:20:51.045Z,1000.66
2018-05-27T09:21:57.812Z,1000.62
2018-05-27T09:23:04.607Z,1000.62
2018-05-27T09:24:11.411Z,1000.65
2018-05-27T09:25:18.242Z,1000.65
2018-05-27T09:26:25.011Z,1000.66
2018-05-27T09:27:31.820Z,1000.67
2018-05-27T09:28:39.123Z,1000.69
2018-05-27T09:29:45.921Z,1000.71
2018-05-27T09:30:52.256Z,1000.72
2018-05-27T09:31:59.561Z,1000.76
2018-05-27T09:33:06.313Z,1000.72
2018-05-27T09:34:12.627Z,1000.68
2018-05-27T09:35:19.446Z,1000.71
2018-05-27T09:36:26.244Z,1000.70
2018-05-27T09:37:33.042Z,1000.72
2018-05-27T09:38:39.837Z,1000.74
2018-05-27T09:39:46.647Z,1000.75
2018-05-27T09:40:53.549Z,1000.76
2018-05-27T09:42:00.242Z,1000.77
2018-05-27T09:43:07.049Z,1000.69
2018-05-27T09:44:13.857Z,1000.70
2018-05-27T09:45:20.710Z,1000.68
2018-05-27T09:46:27.550Z,1000.69
2018-05-27T09:47:34.258Z,1000.70
2018-05-27T09:48:41.106Z,1000.68
2018-05-27T09:49:47.883Z,1000.71
2018-05-27T09:50:54.721Z,1000.68
2018-05-27T09:52:01.523Z,1000.63
2018-05-27T09:53:08.350Z,1000.66
2018-05-27T09:54:15.167Z,1000.64
2018-05-27T09:55:22.028Z,1000.67
2018-05-27T09:56:29.335Z,1000.73
2018-05-27T09:57:35.707Z,1000.65
2018-05-27T09:58:42.782Z,1000.65
2018-05-27T09:59:49.521Z,1000.61
2018-05-27T10:00:56.365Z,1000.64
2018-05-27T10:02:03.737Z,1000.56
2018-05-27T10:03:10.170Z,1000.55
2018-05-27T10:04:17.084Z,1000.57
2018-05-27T10:05:24.037Z,1000.58
2018-05-27T10:06:30.985Z,1000.57
2018-05-27T10:07:38.405Z,1000.58
2018-05-27T10:08:45.360Z,1000.58
2018-05-27T10:09:51.851Z,1000.54
2018-05-27T10:10:58.849Z,1000.52
2018-05-27T10:12:05.834Z,1000.56
2018-05-27T10:13:12.850Z,1000.56
2018-05-27T10:14:19.861Z,1000.56
2018-05-27T10:15:26.893Z,1000.46
2018-05-27T10:16:33.924Z,1000.46
2018-05-27T10:17:40.937Z,1000.46
2018-05-27T10:18:47.990Z,1000.44
2018-05-27T10:19:55.025Z,1000.44
2018-05-27T10:21:02.099Z,1000.42
2018-05-27T10:22:09.622Z,1000.40
2018-05-27T10:23:16.686Z,1000.35
2018-05-27T10:24:23.242Z,1000.39
2018-05-27T10:25:30.800Z,1000.37
2018-05-27T10:26:37.389Z,1000.35
2018-05-27T10:27:44.429Z,1000.36
2018-05-27T10:28:51.482Z,1000.34
2018-05-27T10:29:59.050Z,1000.29
2018-05-27T10:31:05.640Z,1000.30
2018-05-27T10:32:12.683Z,1000.35
2018-05-27T10:33:20.249Z,1000.30
2018-05-27T10:34:26.826Z,1000.28
2018-05-27T10:35:33.897Z,1000.24
2018-05-27T10:36:41.009Z,1000.24
2018-05-27T10:37:48.050Z,1000.25
2018-05-27T10:38:55.130Z,1000.23
2018-05-27T10:40:02.235Z,1000.21
2018-05-27T10:41:09.332Z,1000.19
2018-05-27T10:42:16.402Z,1000.20
2018-05-27T10:43:23.490Z,1000.21
2018-05-27T10:44:30.584Z,1000.23
2018-05-27T10:45:37.692Z,1000.24
2018-05-27T10:46:44.817Z,1000.24
2018-05-27T10:47:51.981Z,1000.26
2018-05-27T10:48:59.015Z,1000.28
2018-05-27T10:50:06.144Z,1000.22
2018-05-27T10:51:13.301Z,1000.19
2018-05-27T10:52:20.407Z,1000.11
2018-05-27T10:53:27.571Z,1000.09
2018-05-27T10:54:34.704Z,1000.16
2018-05-27T10:55:41.867Z,1000.17
2018-05-27T10:56:49.033Z,1000.15
2018-05-27T10:57:56.144Z,1000.12
2018-05-27T10:59:03.278Z,1000.11
2018-05-27T11:00:10.905Z,1000.12
2018-05-27T11:01:17.561Z,1000.17
2018-05-27T11:02:24.645Z,1000.07
2018-05-27T11:03:31.780Z,1000.04
2018-05-27T11:04:38.882Z,999.99
2018-05-27T11:05:45.953Z,1000.01
2018-05-27T11:06:54.044Z,999.98
2018-05-27T11:08:01.092Z,999.96
2018-05-27T11:09:07.155Z,999.96
2018-05-27T11:10:14.223Z,999.98
2018-05-27T11:11:21.813Z,999.97
2018-05-27T11:12:28.504Z,999.97
2018-05-27T11:13:35.542Z,999.94
2018-05-27T11:14:42.686Z,999.93
2018-05-27T11:15:50.807Z,999.92
2018-05-27T11:16:57.546Z,999.87
2018-05-27T11:18:04.095Z,999.87
2018-05-27T11:19:11.248Z,999.90
2018-05-27T11:20:18.428Z,999.90
2018-05-27T11:21:25.662Z,999.88
2018-05-27T11:22:32.904Z,999.89
2018-05-27T11:23:40.242Z,999.85
2018-05-27T11:24:47.593Z,999.92
2018-05-27T11:25:55.006Z,999.95
2018-05-27T11:27:02.503Z,999.89
2018-05-27T11:28:10.038Z,999.90
2018-05-27T11:29:17.631Z,999.86
2018-05-27T11:30:25.781Z,999.84
2018-05-27T11:31:33.027Z,999.84
2018-05-27T11:32:40.766Z,999.86
2018-05-27T11:33:48.529Z,999.84
2018-05-27T11:34:56.369Z,999.79
2018-05-27T11:36:04.240Z,999.81
2018-05-27T11:37:12.172Z,999.79
2018-05-27T11:38:20.109Z,999.82
2018-05-27T11:39:28.037Z,999.80
2018-05-27T11:40:35.981Z,999.78
2018-05-27T11:41:45.556Z,999.70
2018-05-27T11:42:52.333Z,999.67
2018-05-27T11:43:59.678Z,999.62
2018-05-27T11:45:07.547Z,999.61
2018-05-27T11:46:15.319Z,999.60
2018-05-27T11:47:23.558Z,999.58
2018-05-27T11:48:31.117Z,999.55
2018-05-27T11:49:39.065Z,999.54
2018-05-27T11:50:47.041Z,999.50
2018-05-27T11:51:55.077Z,999.51
2018-05-27T11:53:03.080Z,999.50
2018-05-27T11:54:11.139Z,999.47
2018-05-27T11:55:19.188Z,999.46
2018-05-27T11:56:27.260Z,999.44
2018-05-27T11:57:35.761Z,999.44
2018-05-27T11:58:43.181Z,999.43
2018-05-27T11:59:51.040Z,999.42
2018-05-27T12:00:59.837Z,999.45
2018-05-27T12:02:06.852Z,999.44
2018-05-27T12:03:14.590Z,999.47
2018-05-27T12:04:23.061Z,999.47
2018-05-27T12:05:31.038Z,999.43
2018-05-27T12:06:39.163Z,999.44
2018-05-27T12:07:47.244Z,999.42
2018-05-27T12:08:54.814Z,999.37
2018-05-27T12:10:02.874Z,999.38
2018-05-27T12:11:10.926Z,999.33
2018-05-27T12:12:18.996Z,999.32
2018-05-27T12:13:27.047Z,999.31
2018-05-27T12:14:34.894Z,999.29
2018-05-27T12:15:42.827Z,999.26
2018-05-27T12:16:50.760Z,999.25
2018-05-27T12:17:58.593Z,999.28
2018-05-27T12:19:06.452Z,999.26
2018-05-27T12:20:14.302Z,999.26
2018-05-27T12:21:22.156Z,999.24
2018-05-27T12:22:30.054Z,999.23
2018-05-27T12:23:38.015Z,999.22
2018-05-27T12:24:46.529Z,999.12
2018-05-27T12:25:54.128Z,999.11
2018-05-27T12:27:02.266Z,999.08
2018-05-27T12:28:10.430Z,999.09
2018-05-27T12:29:18.671Z,999.05
2018-05-27T12:30:26.938Z,999.09
2018-05-27T12:31:35.203Z,999.02
2018-05-27T12:32:43.366Z,998.97
2018-05-27T12:33:51.804Z,998.99
2018-05-27T12:34:59.648Z,998.95
2018-05-27T12:36:07.756Z,998.93
2018-05-27T12:37:15.845Z,998.90
2018-05-27T12:38:23.857Z,998.91
2018-05-27T12:39:31.821Z,998.89
2018-05-27T12:40:39.772Z,998.88
2018-05-27T12:41:47.710Z,998.86
2018-05-27T12:42:55.564Z,998.81
2018-05-27T12:44:03.896Z,998.81
2018-05-27T12:45:11.230Z,998.73
2018-05-27T12:46:19.029Z,998.77
2018-05-27T12:47:26.823Z,998.76
2018-05-27T12:49:43.310Z,998.76
2018-05-27T12:50:50.074Z,998.79
2018-05-27T12:51:57.955Z,998.76
2018-05-27T12:53:05.568Z,998.80
2018-05-27T12:54:13.296Z,998.79
2018-05-27T12:55:21.047Z,998.78
2018-05-27T12:56:28.789Z,998.82
2018-05-27T12:57:36.591Z,998.81
2018-05-27T12:58:44.408Z,998.78
2018-05-27T12:59:52.230Z,998.82
2018-05-27T13:01:00.499Z,998.77
2018-05-27T13:02:07.780Z,998.77
2018-05-27T13:03:15.488Z,998.74
2018-05-27T13:04:23.151Z,998.77
2018-05-27T13:05:30.814Z,998.71
2018-05-27T13:06:38.493Z,998.69
2018-05-27T13:07:46.084Z,998.71
2018-05-27T13:08:53.734Z,998.69
2018-05-27T13:10:01.347Z,998.68
2018-05-27T13:11:09.034Z,998.62
2018-05-27T13:12:17.268Z,998.59
2018-05-27T13:13:24.504Z,998.60
2018-05-27T13:14:32.270Z,998.56
2018-05-27T13:15:40.066Z,998.54
2018-05-27T13:16:48.122Z,998.56
2018-05-27T13:17:55.776Z,998.54
2018-05-27T13:19:03.667Z,998.46
2018-05-27T13:20:11.557Z,998.45
2018-05-27T13:21:19.537Z,998.42
2018-05-27T13:22:27.337Z,998.44
2018-05-27T13:23:35.622Z,998.42
2018-05-27T13:24:43.414Z,998.39
2018-05-27T13:25:50.672Z,998.38
2018-05-27T13:26:59.933Z,998.37
2018-05-27T13:28:06.674Z,998.35
2018-05-27T13:29:13.872Z,998.31
2018-05-27T13:30:22.102Z,998.31
2018-05-27T13:31:29.323Z,998.31
2018-05-27T13:32:37.118Z,998.26
2018-05-27T13:33:45.882Z,998.28